Map

Track Data

SID SEASON NUMBER BASIN SUBBASIN NAME ISO_TIME NATURE LAT LON WMO_WIND WMO_PRES WMO_AGENCY TRACK_TYPE DIST2LAND LANDFALL IFLAG USA_AGENCY USA_ATCF_ID USA_LAT USA_LON USA_RECORD USA_STATUS USA_WIND USA_PRES USA_SSHS USA_R34_NE USA_R34_SE USA_R34_SW USA_R34_NW USA_R50_NE USA_R50_SE USA_R50_SW USA_R50_NW USA_R64_NE USA_R64_SE USA_R64_SW USA_R64_NW USA_POCI USA_ROCI USA_RMW USA_EYE TOKYO_LAT TOKYO_LON TOKYO_GRADE TOKYO_WIND TOKYO_PRES TOKYO_R50_DIR TOKYO_R50_LONG TOKYO_R50_SHORT TOKYO_R30_DIR TOKYO_R30_LONG TOKYO_R30_SHORT TOKYO_LAND CMA_LAT CMA_LON CMA_CAT CMA_WIND CMA_PRES HKO_LAT HKO_LON HKO_CAT HKO_WIND HKO_PRES NEWDELHI_LAT NEWDELHI_LON NEWDELHI_GRADE NEWDELHI_WIND NEWDELHI_PRES NEWDELHI_CI NEWDELHI_DP NEWDELHI_POCI REUNION_LAT REUNION_LON REUNION_TYPE REUNION_WIND REUNION_PRES REUNION_TNUM REUNION_CI REUNION_RMW REUNION_R34_NE REUNION_R34_SE REUNION_R34_SW REUNION_R34_NW REUNION_R50_NE REUNION_R50_SE REUNION_R50_SW REUNION_R50_NW REUNION_R64_NE REUNION_R64_SE REUNION_R64_SW REUNION_R64_NW BOM_LAT BOM_LON BOM_TYPE BOM_WIND BOM_PRES BOM_TNUM BOM_CI BOM_RMW BOM_R34_NE BOM_R34_SE BOM_R34_SW BOM_R34_NW BOM_R50_NE BOM_R50_SE BOM_R50_SW BOM_R50_NW BOM_R64_NE BOM_R64_SE BOM_R64_SW BOM_R64_NW BOM_ROCI BOM_POCI BOM_EYE BOM_POS_METHOD BOM_PRES_METHOD NADI_LAT NADI_LON NADI_CAT NADI_WIND NADI_PRES WELLINGTON_LAT WELLINGTON_LON WELLINGTON_WIND WELLINGTON_PRES DS824_LAT DS824_LON DS824_STAGE DS824_WIND DS824_PRES TD9636_LAT TD9636_LON TD9636_STAGE TD9636_WIND TD9636_PRES TD9635_LAT TD9635_LON TD9635_WIND TD9635_PRES TD9635_ROCI NEUMANN_LAT NEUMANN_LON NEUMANN_CLASS NEUMANN_WIND NEUMANN_PRES MLC_LAT MLC_LON MLC_CLASS MLC_WIND MLC_PRES USA_GUST BOM_GUST BOM_GUST_PER REUNION_GUST REUNION_GUST_PER USA_SEAHGT USA_SEARAD_NE USA_SEARAD_SE USA_SEARAD_SW USA_SEARAD_NW STORM_SPEED STORM_DIR
1970228N11263 1970 87 EP MM LORRAINE 1970-08-16 00:00:00 TS 11.2000 -97.4000 25 hurdat_epa main 500 500 O________OO___ hurdat_epa EP121970 11.2000 -97.4000 TD 25 -1 11.2000 -97.4000 TC 25 11.2000 -97.4000 1 11 275
1970228N11263 1970 87 EP MM LORRAINE 1970-08-16 03:00:00 TS 11.2452 -97.9487 main 512 504 P________PP___ EP121970 11.2427 -97.9500 TD 25 -1 11.2427 -97.9500 TC 25 11.2553 -97.9438 1 11 275
1970228N11263 1970 87 EP MM LORRAINE 1970-08-16 06:00:00 TS 11.3036 -98.4980 25 hurdat_epa main 523 523 O________OP___ hurdat_epa EP121970 11.3000 -98.5000 TD 25 -1 11.3000 -98.5000 TC 25 11.3181 -98.4901 1 11 278
1970228N11263 1970 87 EP MM LORRAINE 1970-08-16 09:00:00 TS 11.3873 -99.0483 main 531 531 P________PP___ EP121970 11.3849 -99.0500 TD 25 -1 11.3849 -99.0500 TC 25 11.3969 -99.0413 1 11 280
1970228N11263 1970 87 EP MM LORRAINE 1970-08-16 12:00:00 TS 11.5000 -99.6000 25 hurdat_epa main 540 537 O________OO___ hurdat_epa EP121970 11.5000 -99.6000 TD 25 -1 11.5000 -99.6000 TC 25 11.5000 -99.6000 1 11 283
1970228N11263 1970 87 EP MM LORRAINE 1970-08-16 15:00:00 TS 11.6347 -100.153 main 553 543 P________PP___ EP121970 11.6349 -100.150 TD 25 -1 11.6349 -100.150 TC 25 11.6340 -100.166 1 11 285
1970228N11263 1970 87 EP MM LORRAINE 1970-08-16 18:00:00 TS 11.7995 -100.706 25 hurdat_epa main 552 550 O________OP___ hurdat_epa EP121970 11.8000 -100.700 TD 25 -1 11.8000 -100.700 TC 25 11.7974 -100.730 1 11 288
1970228N11263 1970 87 EP MM LORRAINE 1970-08-16 21:00:00 TS 11.9854 -101.268 main 553 547 P________PP___ EP121970 11.9850 -101.265 TD 25 -1 11.9850 -101.265 TC 25 11.9871 -101.279 1 11 291
1970228N11263 1970 87 EP MM LORRAINE 1970-08-17 00:00:00 TS 12.2000 -101.800 25 hurdat_epa main 552 546 O________OO___ hurdat_epa EP121970 12.2000 -101.800 TD 25 -1 12.2000 -101.800 TC 25 12.2000 -101.800 1 11 295
1970228N11263 1970 87 EP MM LORRAINE 1970-08-17 03:00:00 TS 12.4370 -102.265 main 556 542 P________PP___ EP121970 12.4423 -102.265 TD 25 -1 12.4423 -102.265 TC 25 12.4156 -102.267 1 10 299
1970228N11263 1970 87 EP MM LORRAINE 1970-08-17 06:00:00 TS 12.6908 -102.702 25 hurdat_epa main 542 533 O________OP___ hurdat_epa EP121970 12.7000 -102.700 TD 25 -1 12.7000 -102.700 TC 25 12.6542 -102.708 1 10 300
1970228N11263 1970 87 EP MM LORRAINE 1970-08-17 09:00:00 TS 12.9310 -103.143 main 537 526 P________PP___ EP121970 12.9349 -103.143 TD 25 -1 12.9349 -103.143 TC 25 12.9156 -103.145 1 10 300
1970228N11263 1970 87 EP MM LORRAINE 1970-08-17 12:00:00 TS 13.2000 -103.600 25 hurdat_epa main 531 523 O________OO___ hurdat_epa EP121970 13.2000 -103.600 TD 25 -1 13.2000 -103.600 TC 25 13.2000 -103.600 2 11 304
1970228N11263 1970 87 EP MM LORRAINE 1970-08-17 15:00:00 TS 13.5378 -104.084 main 528 500 P________PP___ EP121970 13.5424 -104.085 TD 30 -1 13.5424 -104.085 TC 30 13.5192 -104.079 2 12 306
1970228N11263 1970 87 EP MM LORRAINE 1970-08-17 18:00:00 TS 13.8913 -104.597 35 hurdat_epa main 503 486 O________OP___ hurdat_epa EP121970 13.9000 -104.600 TS 35 0 13.9000 -104.600 TC 35 13.8567 -104.583 2 12 303
1970228N11263 1970 87 EP MM LORRAINE 1970-08-17 21:00:00 TS 14.2040 -105.126 main 489 480 P________PP___ EP121970 14.2073 -105.128 TS 35 0 14.2073 -105.128 TC 35 14.1909 -105.120 2 12 300
1970228N11263 1970 87 EP MM LORRAINE 1970-08-18 00:00:00 TS 14.5000 -105.700 35 hurdat_epa main 485 481 O________OO___ hurdat_epa EP121970 14.5000 -105.700 TS 35 0 14.5000 -105.700 TC 35 14.5000 -105.700 2 13 298
1970228N11263 1970 87 EP MM LORRAINE 1970-08-18 03:00:00 TS 14.8161 -106.334 main 492 490 P________PP___ EP121970 14.8224 -106.327 TS 35 0 14.8224 -106.327 TC 35 14.7908 -106.360 2 14 295
1970228N11263 1970 87 EP MM LORRAINE 1970-08-18 06:00:00 TS 15.0897 -107.011 35 hurdat_epa main 514 514 O________OP___ hurdat_epa EP121970 15.1000 -107.000 TS 35 0 15.1000 -107.000 TC 35 15.0483 -107.057 2 14 289
1970228N11263 1970 87 EP MM LORRAINE 1970-08-18 09:00:00 TS 15.2814 -107.728 main 534 534 P________PP___ EP121970 15.2876 -107.723 TS 35 0 15.2876 -107.723 TC 35 15.2565 -107.750 2 14 283
1970228N11263 1970 87 EP MM LORRAINE 1970-08-18 12:00:00 TS 15.4000 -108.400 35 hurdat_epa main 571 571 O________OO___ hurdat_epa EP121970 15.4000 -108.400 TS 35 0 15.4000 -108.400 TC 35 15.4000 -108.400 2 12 280
1970228N11263 1970 87 EP MM LORRAINE 1970-08-18 15:00:00 TS 15.4822 -108.938 main 600 600 P________PP___ EP121970 15.4797 -108.930 TS 35 0 15.4797 -108.930 TC 35 15.4924 -108.971 2 10 276
1970228N11263 1970 87 EP MM LORRAINE 1970-08-18 18:00:00 TS 15.5038 -109.418 35 hurdat_epa main 638 638 O________OP___ hurdat_epa EP121970 15.5000 -109.400 TS 35 0 15.5000 -109.400 TC 35 15.5192 -109.490 2 10 270
1970228N11263 1970 87 EP MM LORRAINE 1970-08-18 21:00:00 TS 15.4873 -109.931 main 677 677 P________PP___ EP121970 15.4875 -109.922 TS 35 0 15.4875 -109.922 TC 35 15.4864 -109.965 2 10 264
1970228N11263 1970 87 EP MM LORRAINE 1970-08-19 00:00:00 TS 15.4000 -110.400 35 hurdat_epa main 723 723 O________OO___ hurdat_epa EP121970 15.4000 -110.400 TS 35 0 15.4000 -110.400 TC 35 15.4000 -110.400 2 9 252
1970228N11263 1970 87 EP MM LORRAINE 1970-08-19 03:00:00 TS 15.2243 -110.773 main 770 770 P________PP___ EP121970 15.2148 -110.765 TS 35 0 15.2148 -110.765 TC 35 15.2625 -110.803 2 8 241
1970228N11263 1970 87 EP MM LORRAINE 1970-08-19 06:00:00 TS 15.0158 -111.115 35 hurdat_epa main 809 809 O________OP___ hurdat_epa EP121970 15.0000 -111.100 TS 35 0 15.0000 -111.100 TC 35 15.0792 -111.173 2 8 242
1970228N11263 1970 87 EP MM LORRAINE 1970-08-19 09:00:00 TS 14.8442 -111.500 main 856 856 P________PP___ EP121970 14.8350 -111.492 TS 35 0 14.8350 -111.492 TC 35 14.8813 -111.531 2 8 247
1970228N11263 1970 87 EP MM LORRAINE 1970-08-19 12:00:00 TS 14.7000 -111.900 35 hurdat_epa main 896 896 O________OO___ hurdat_epa EP121970 14.7000 -111.900 TS 35 0 14.7000 -111.900 TC 35 14.7000 -111.900 2 8 252
1970228N11263 1970 87 EP MM LORRAINE 1970-08-19 15:00:00 TS 14.5879 -112.294 main 937 937 P________PP___ EP121970 14.5924 -112.292 TS 42 0 14.5924 -112.292 TC 42 14.5701 -112.302 2 8 255
1970228N11263 1970 87 EP MM LORRAINE 1970-08-19 18:00:00 TS 14.4924 -112.704 50 hurdat_epa main 978 978 O________OP___ hurdat_epa EP121970 14.5000 -112.700 TS 50 0 14.5000 -112.700 TC 50 14.4622 -112.720 2 8 256
1970228N11263 1970 87 EP MM LORRAINE 1970-08-19 21:00:00 TS 14.3886 -113.144 main 1005 1005 P________PP___ EP121970 14.3925 -113.143 TS 55 0 14.3925 -113.143 TC 55 14.3732 -113.152 2 9 258
1970228N11263 1970 87 EP MM LORRAINE 1970-08-20 00:00:00 TS 14.3000 -113.600 60 hurdat_epa main 1034 1034 O________OO___ hurdat_epa EP121970 14.3000 -113.600 TS 60 0 14.3000 -113.600 TC 60 14.3000 -113.600 2 9 260
1970228N11263 1970 87 EP MM LORRAINE 1970-08-20 03:00:00 TS 14.2394 -114.045 main 1060 1060 P________PP___ EP121970 14.2424 -114.042 TS 60 0 14.2424 -114.042 TC 60 14.2273 -114.057 2 9 263
1970228N11263 1970 87 EP MM LORRAINE 1970-08-20 06:00:00 TS 14.1939 -114.505 60 hurdat_epa main 1082 1082 O________OP___ hurdat_epa EP121970 14.2000 -114.500 TS 60 0 14.2000 -114.500 TC 60 14.1697 -114.527 2 9 264
1970228N11263 1970 87 EP MM LORRAINE 1970-08-20 09:00:00 TS 14.1454 -114.996 main 1116 1116 P________PP___ EP121970 14.1499 -114.992 TS 60 0 14.1499 -114.992 TC 60 14.1273 -115.010 2 10 264
1970228N11263 1970 87 EP MM LORRAINE 1970-08-20 12:00:00 TS 14.1000 -115.500 60 hurdat_epa main 1142 1142 O________OO___ hurdat_epa EP121970 14.1000 -115.500 TS 60 0 14.1000 -115.500 TC 60 14.1000 -115.500 2 10 264
1970228N11263 1970 87 EP MM LORRAINE 1970-08-20 15:00:00 TS 14.0393 -115.999 main 1179 1179 P________PP___ EP121970 14.0349 -116.000 TS 62 0 14.0349 -116.000 TC 62 14.0570 -115.997 2 10 264
1970228N11263 1970 87 EP MM LORRAINE 1970-08-20 18:00:00 TS 14.0065 -116.500 65 988 hurdat_epa main 1208 1208 O________OP___ hurdat_epa EP121970 14.0000 -116.500 HU 65 988 1 14.0000 -116.500 TC 65 988 14.0323 -116.500 2 10 269
1970228N11263 1970 87 EP MM LORRAINE 1970-08-20 21:00:00 TS 14.0242 -117.001 main 1239 1239 P________PP___ EP121970 14.0199 -117.000 HU 65 1 14.0199 -117.000 TC 65 14.0414 -117.004 2 10 276
1970228N11263 1970 87 EP MM LORRAINE 1970-08-21 00:00:00 TS 14.1000 -117.500 65 hurdat_epa main 1262 1262 O________OO___ hurdat_epa EP121970 14.1000 -117.500 HU 65 1 14.1000 -117.500 TC 65 14.1000 -117.500 4 10 282
1970228N11263 1970 87 EP MM LORRAINE 1970-08-21 03:00:00 TS 14.2252 -118.006 main 1287 1285 P________PP___ EP121970 14.2274 -118.008 HU 65 1 14.2274 -118.008 TC 65 14.2164 -117.998 4 10 287
1970228N11263 1970 87 EP MM LORRAINE 1970-08-21 06:00:00 TS 14.3965 -118.497 65 hurdat_epa main 1305 1305 O________OP___ hurdat_epa EP121970 14.4000 -118.500 HU 65 1 14.4000 -118.500 TC 65 14.3824 -118.487 4 10 291
1970228N11263 1970 87 EP MM LORRAINE 1970-08-21 09:00:00 TS 14.5904 -118.964 main 1325 1325 P________PP___ EP121970 14.5924 -118.965 HU 65 1 14.5924 -118.965 TC 65 14.5821 -118.958 4 10 295
1970228N11263 1970 87 EP MM LORRAINE 1970-08-21 12:00:00 TS 14.8000 -119.400 65 hurdat_epa main 1340 1340 O________OO___ hurdat_epa EP121970 14.8000 -119.400 HU 65 1 14.8000 -119.400 TC 65 14.8000 -119.400 4 9 296
1970228N11263 1970 87 EP MM LORRAINE 1970-08-21 15:00:00 TS 14.9951 -119.806 main 1350 1347 P________PP___ EP121970 14.9924 -119.815 HU 65 1 14.9924 -119.815 TC 65 15.0057 -119.772 4 9 298
1970228N11263 1970 87 EP MM LORRAINE 1970-08-21 18:00:00 TS 15.2052 -120.184 65 978 hurdat_epa main 1357 1353 O________OP___ hurdat_epa EP121970 15.2000 -120.200 HU 65 978 1 15.2000 -120.200 TC 65 978 15.2262 -120.121 4 8 303
1970228N11263 1970 87 EP MM LORRAINE 1970-08-21 21:00:00 TS 15.4395 -120.519 main 1359 1351 P________PP___ EP121970 15.4347 -120.528 HU 67 1 15.4347 -120.528 TC 67 15.4587 -120.484 4 9 306
1970228N11263 1970 87 EP MM LORRAINE 1970-08-22 00:00:00 TS 15.7000 -120.900 70 hurdat_epa main 1361 1360 O________OO___ hurdat_epa EP121970 15.7000 -120.900 HU 70 1 15.7000 -120.900 TC 70 15.7000 -120.900 4 10 303
1970228N11263 1970 87 EP MM LORRAINE 1970-08-22 03:00:00 TS 16.0011 -121.414 main 1372 1371 P________PP___ EP121970 16.0075 -121.412 HU 70 1 16.0075 -121.412 TC 70 15.9756 -121.421 4 12 299
1970228N11263 1970 87 EP MM LORRAINE 1970-08-22 06:00:00 TS 16.2906 -121.999 70 hurdat_epa main 1393 1393 O________OP___ hurdat_epa EP121970 16.3000 -122.000 HU 70 1 16.3000 -122.000 TC 70 16.2528 -121.996 4 13 295
1970228N11263 1970 87 EP MM LORRAINE 1970-08-22 09:00:00 TS 16.5247 -122.600 main 1424 1424 P________PP___ EP121970 16.5300 -122.600 HU 70 1 16.5300 -122.600 TC 70 16.5036 -122.599 4 12 290
1970228N11263 1970 87 EP MM LORRAINE 1970-08-22 12:00:00 TS 16.7000 -123.200 70 hurdat_epa main 1457 1457 O________OO___ hurdat_epa EP121970 16.7000 -123.200 HU 70 1 16.7000 -123.200 TC 70 16.7000 -123.200 4 12 285
1970228N11263 1970 87 EP MM LORRAINE 1970-08-22 15:00:00 TS 16.8268 -123.758 main 1499 1499 P________PP___ EP121970 16.8298 -123.758 HU 77 1 16.8298 -123.758 TC 77 16.8151 -123.758 4 11 280
1970228N11263 1970 87 EP MM LORRAINE 1970-08-22 18:00:00 TS 16.8949 -124.302 85 963 hurdat_epa main 1535 1535 O________OP___ hurdat_epa EP121970 16.9000 -124.300 HU 85 963 2 16.9000 -124.300 TC 85 963 16.8743 -124.308 4 11 275
1970228N11263 1970 87 EP MM LORRAINE 1970-08-22 21:00:00 TS 16.9112 -124.851 main 1577 1577 P________PP___ EP121970 16.9149 -124.850 HU 85 2 16.9149 -124.850 TC 85 16.8963 -124.855 4 11 270
1970228N11263 1970 87 EP MM LORRAINE 1970-08-23 00:00:00 TS 16.9000 -125.400 85 hurdat_epa main 1611 1611 O________OO___ hurdat_epa EP121970 16.9000 -125.400 HU 85 2 16.9000 -125.400 TC 85 16.9000 -125.400 4 11 270
1970228N11263 1970 87 EP MM LORRAINE 1970-08-23 03:00:00 TS 16.9027 -125.949 main 1645 1645 P________PP___ EP121970 16.8999 -125.950 HU 85 2 16.8999 -125.950 TC 85 16.9139 -125.946 4 11 270
1970228N11263 1970 87 EP MM LORRAINE 1970-08-23 06:00:00 TS 16.9029 -126.499 85 hurdat_epa main 1688 1688 O________OP___ hurdat_epa EP121970 16.9000 -126.500 HU 85 2 16.9000 -126.500 TC 85 16.9143 -126.493 4 11 270
1970228N11263 1970 87 EP MM LORRAINE 1970-08-23 09:00:00 TS 16.9014 -127.049 main 1724 1724 P________PP___ EP121970 16.8999 -127.050 HU 82 1 16.8999 -127.050 TC 82 16.9076 -127.043 4 11 270
1970228N11263 1970 87 EP MM LORRAINE 1970-08-23 12:00:00 TS 16.9000 -127.600 80 hurdat_epa main 1768 1768 O________OO___ hurdat_epa EP121970 16.9000 -127.600 HU 80 1 16.9000 -127.600 TC 80 16.9000 -127.600 2 11 270
1970228N11263 1970 87 EP MM LORRAINE 1970-08-23 15:00:00 TS 16.8941 -128.149 main 1806 1806 P________PP___ EP121970 16.8998 -128.143 HU 70 1 16.8998 -128.143 TC 70 16.8713 -128.176 2 11 269
1970228N11263 1970 87 EP MM LORRAINE 1970-08-23 18:00:00 TS 16.8894 -128.712 60 hurdat_epa main 1852 1852 O________OP___ hurdat_epa EP121970 16.9000 -128.700 TS 60 0 16.9000 -128.700 TC 60 16.8472 -128.758 2 11 269
1970228N11263 1970 87 EP MM LORRAINE 1970-08-23 21:00:00 TS 16.8779 -129.307 main 1899 1899 P________PP___ EP121970 16.8850 -129.300 TS 60 0 16.8850 -129.300 TC 60 16.8495 -129.336 2 11 271
1970228N11263 1970 87 EP MM LORRAINE 1970-08-24 00:00:00 TS 16.9000 -129.900 60 hurdat_epa main 1947 1947 O________OO___ hurdat_epa EP121970 16.9000 -129.900 TS 60 0 16.9000 -129.900 TC 60 16.9000 -129.900 2 11 275
1970228N11263 1970 87 EP MM LORRAINE 1970-08-24 03:00:00 TS 16.9740 -130.464 main 1989 1989 P________PP___ EP121970 16.9624 -130.465 TS 57 0 16.9624 -130.465 TC 57 17.0204 -130.459 2 11 282
1970228N11263 1970 87 EP MM LORRAINE 1970-08-24 06:00:00 TS 17.1180 -131.000 55 hurdat_epa main 2023 2023 O________OP___ hurdat_epa EP121970 17.1000 -131.000 TS 55 0 17.1000 -131.000 TC 55 17.1898 -131.002 2 11 290
1970228N11263 1970 87 EP MM LORRAINE 1970-08-24 09:00:00 TS 17.3458 -131.522 main 2051 2044 P________PP___ EP121970 17.3349 -131.522 TS 55 0 17.3349 -131.522 TC 55 17.3892 -131.519 2 11 297
1970228N11263 1970 87 EP MM LORRAINE 1970-08-24 12:00:00 TS 17.6000 -132.000 55 hurdat_epa main 2073 2073 O________OO___ hurdat_epa EP121970 17.6000 -132.000 TS 55 0 17.6000 -132.000 TC 55 17.6000 -132.000 2 10 298
1970228N11263 1970 87 EP MM LORRAINE 1970-08-24 15:00:00 TS 17.8075 -132.418 main 2095 2095 P________PP___ EP121970 17.8073 -132.415 TS 52 0 17.8073 -132.415 TC 52 17.8083 -132.428 2 9 298
1970228N11263 1970 87 EP MM LORRAINE 1970-08-24 18:00:00 TS 18.0043 -132.805 50 994 hurdat_epa main 2117 2117 O________OP___ hurdat_epa EP121970 18.0000 -132.800 TS 50 994 0 18.0000 -132.800 TC 50 994 18.0215 -132.823 2 8 299
1970228N11263 1970 87 EP MM LORRAINE 1970-08-24 21:00:00 TS 18.2167 -133.195 main 2140 2140 P________PP___ EP121970 18.2149 -133.193 TS 50 0 18.2149 -133.193 TC 50 18.2240 -133.206 2 9 298
1970228N11263 1970 87 EP MM LORRAINE 1970-08-25 00:00:00 TS 18.4000 -133.600 50 hurdat_epa main 2163 2163 O________OO___ hurdat_epa EP121970 18.4000 -133.600 TS 50 0 18.4000 -133.600 TC 50 18.4000 -133.600 2 9 290
1970228N11263 1970 87 EP MM LORRAINE 1970-08-25 03:00:00 TS 18.5169 -134.042 main 2188 2134 P________PP___ EP121970 18.5149 -134.043 TS 50 0 18.5149 -134.043 TC 50 18.5246 -134.040 2 9 283
1970228N11263 1970 87 EP MM LORRAINE 1970-08-25 06:00:00 TS 18.6045 -134.499 50 hurdat_epa main 2134 2091 O________OP___ hurdat_epa EP121970 18.6000 -134.500 TS 50 0 18.6000 -134.500 TC 50 18.6224 -134.493 2 9 282
1970228N11263 1970 87 EP MM LORRAINE 1970-08-25 09:00:00 TS 18.6957 -134.956 main 2081 2038 P________PP___ EP121970 18.6924 -134.958 TS 47 0 18.6924 -134.958 TC 47 18.7090 -134.950 2 9 283
1970228N11263 1970 87 EP MM LORRAINE 1970-08-25 12:00:00 TS 18.8000 -135.400 45 hurdat_epa main 2038 1995 O________OO___ hurdat_epa EP121970 18.8000 -135.400 TS 45 0 18.8000 -135.400 TC 45 18.8000 -135.400 2 8 287
1970228N11263 1970 87 EP MM LORRAINE 1970-08-25 15:00:00 TS 18.9433 -135.804 main 1995 1951 P________PP___ EP121970 18.9498 -135.800 TS 45 0 18.9498 -135.800 TC 45 18.9172 -135.820 2 8 291
1970228N11263 1970 87 EP MM LORRAINE 1970-08-25 18:00:00 TS 19.0883 -136.207 45 hurdat_epa main 1951 1908 O________OP___ hurdat_epa EP121970 19.1000 -136.200 TS 45 0 19.1000 -136.200 TC 45 19.0417 -136.235 2 8 288
1970228N11263 1970 87 EP MM LORRAINE 1970-08-25 21:00:00 TS 19.1940 -136.640 main 1908 1855 P________PP___ EP121970 19.1999 -136.635 TS 45 0 19.1999 -136.635 TC 45 19.1703 -136.658 2 9 284
1970228N11263 1970 87 EP MM LORRAINE 1970-08-26 00:00:00 TS 19.3000 -137.100 45 hurdat_epa main 1855 1802 O________OO___ hurdat_epa EP121970 19.3000 -137.100 TS 45 0 19.3000 -137.100 TC 45 19.3000 -137.100 2 9 286
1970228N11263 1970 87 EP MM LORRAINE 1970-08-26 03:00:00 TS 19.4474 -137.590 main 1802 1749 P________PP___ EP121970 19.4499 -137.592 TS 45 0 19.4499 -137.592 TC 45 19.4371 -137.582 2 10 287
1970228N11263 1970 87 EP MM LORRAINE 1970-08-26 06:00:00 TS 19.5945 -138.097 45 hurdat_epa main 1749 1696 O________OP___ hurdat_epa EP121970 19.6000 -138.100 TS 45 0 19.6000 -138.100 TC 45 19.5724 -138.085 2 10 285
1970228N11263 1970 87 EP MM LORRAINE 1970-08-26 09:00:00 TS 19.7052 -138.605 main 1696 1643 P________PP___ EP121970 19.7074 -138.608 TS 45 0 19.7074 -138.608 TC 45 19.6965 -138.595 2 10 282
1970228N11263 1970 87 EP MM LORRAINE 1970-08-26 12:00:00 TS 19.8000 -139.100 45 hurdat_epa main 1643 1601 O________OO___ hurdat_epa EP121970 19.8000 -139.100 TS 45 0 19.8000 -139.100 TC 45 19.8000 -139.100 6 9 283
1970228N11263 1970 87 EP MM LORRAINE 1970-08-26 15:00:00 TS 19.9076 -139.555 main 1591 1549 P________PP___ EP121970 19.9148 -139.550 TS 35 0 19.9148 -139.550 TC 35 19.8791 -139.574 6 9 282
1970228N11263 1970 87 EP CP LORRAINE 1970-08-26 18:00:00 TS 19.9879 -140.008 25 hurdat_epa main 1549 1497 O________OP___ hurdat_epa EP121970 20.0000 -140.000 TD 25 -1 20.0000 -140.000 TC 25 19.9366 -140.043 6 9 276
1970228N11263 1970 87 EP CP LORRAINE 1970-08-26 21:00:00 TS 20.0065 -140.501 main 1497 1444 P________PP___ EP121970 20.0149 -140.485 TD 25 -1 20.0149 -140.485 TC 25 19.9759 -140.515 6 10 271
1970228N11263 1970 87 EP CP LORRAINE 1970-08-27 00:00:00 TS 20.0000 -141.026 25 hurdat_epa main 1444 1382 O________OO___ hurdat_epa EP121970 20.0000 -141.000 TD 25 -1 20.0000 -141.000 TC 25 20.0000 -141.000 6 10 270
1970228N11263 1970 87 EP CP LORRAINE 1970-08-27 03:00:00 TS 20.0019 -141.582 main 1382 1329 P________PP___ EP121970 20.0000 -141.550 TD 25 -1 20.0000 -141.550 TC 25 20.0118 -141.505 6 10 270
1970228N11263 1970 87 EP CP LORRAINE 1970-08-27 06:00:00 TS 20.0023 -142.138 25 hurdat_epa main 1329 1267 O________OP___ hurdat_epa EP121970 20.0000 -142.100 TD 25 -1 20.0000 -142.100 TC 25 20.0140 -142.027 6 10 270
1970228N11263 1970 87 EP CP LORRAINE 1970-08-27 09:00:00 TS 20.0018 -142.682 main 1267 1214 P________PP___ EP121970 20.0002 -142.613 TD 25 -1 20.0002 -142.613 TC 25 20.0092 -142.561 6 10 270
1970228N11263 1970 87 EP CP LORRAINE 1970-08-27 12:00:00 TS 20.0000 -143.217 25 hurdat_epa main 1214 O________OO___ hurdat_epa EP121970 20.0000 -143.100 TD 25 -1 20.0000 -143.100 TC 25 20.0000 -143.100 6 10 270

About IBTrACS Database

This database is a web-friendly format of International Best Track Archive for Climate Stewardship (IBTrACS), a global best track data archive curated by NOAA dating back to 1842.

Updated: 2021-10-21